Historyczne dane pomiarowe

Dodano dane terminowe – wersja testowa.

Dane z okresu 1951-2019

Wersja bazy: 1.34 [2019-03-16, lista zmian], aktualizacja planowana na 2019-04-15

Dane meteo z obszaru Polski uzyskane na podstawie danych udostępnionych przez Instytut Meteorologii i Gospodarki Wodnej – Państwowy Instytut Badawczy.

 

Wybierz Datę:    

       

TemperaturaWilgotnośćWiatrCiśnienieOpadyŚniegCzas trwania zjawisk
 Stacja t tx tn tng RH VA  wxwx mslp ppp RRR   cm mm wxwxwxwxwxwxwx
1981-05-15 7.0 9.9 5.0- 87.8 8.8 4.1 5.1 7.8 0.0- 839.4 1.3 1.1 0.2- 0.0 7.5 0.3-- 8.5-- 1.7
1981-05-16 6.0 9.1 4.0- 92.9 8.7 6.4 11.6 22.0 0.0- 837.3 0.0 0.0 0.0- 0.0 7.5--- 10.0---
1981-05-17 5.6 9.5 3.9- 92.6 8.4 7.3 7.9 12.3 0.0- 835.9 4.1 3.3 0.8- 0.0 5.9 2.3-- 13.4-- 3.0
1981-05-18 3.2 5.8 0.4- 89.4 6.9 5.9 5.0 4.0 0.0- 840.5 0.0 0.0 0.0- 0.0 4.1 0.2 0.2 0.3 7.9---
1981-05-19 6.8 9.7 4.0- 69.3 6.9 3.1 3.6 0.0 0.0- 844.3 0.0 0.0 0.0- 0.0 7.9-------
1981-05-20 7.7 10.0 7.0- 75.4 7.9 3.0 5.4 0.0 0.0- 845.1 0.0 0.0 0.0- 0.0 14.4-------
1981-05-21 9.5 14.0 4.6- 61.3 7.3 3.3 3.3 2.5 0.0- 844.3 0.0 0.0 0.0- 0.0 14.0-------
1981-05-22 7.8 11.0 5.4- 84.8 9.0 3.4 11.8 13.3 4.8- 840.7 0.0 0.0 0.0- 0.0 11.8--- 2.4---
1981-05-23 5.7 8.4 3.4- 99.6 9.1 8.0 4.3 0.0 0.0- 839.8 1.6 0.2 1.4- 0.0 0.0 6.8-- 21.1---
1981-05-24 4.6 6.1 2.8- 91.1 7.8 7.3 7.9 6.1 0.0- 836.1 5.0 4.9 0.1- 0.0 1.8 4.7-- 12.8---
1981-05-25 4.9 8.5 0.9- 93.6 8.3 6.9 9.4 13.3 0.0- 834.0 6.9 0.1 6.8- 0.0 1.5 4.5-- 15.3---
1981-05-26 8.3 10.2 7.1- 99.9 10.9 7.8 6.0 4.3 0.0- 831.6 1.4 1.2 0.2- 0.0 1.2 9.1-- 24.0---
1981-05-27 5.7 9.2 2.2- 99.0 9.2 7.9 19.4 24.0 20.8- 827.5 0.3 0.3 0.0- 0.0 0.4 2.0-- 19.1-- 0.9
1981-05-28 3.7 5.6 1.4- 92.6 7.4 6.1 3.4 0.3 0.0- 837.4 0.0 0.0 0.0- 0.0 3.2--- 8.1---
1981-05-29 4.7 5.9 3.6- 87.5 7.5 5.4 3.8 0.0 0.0- 838.3 2.4 0.0 2.4- 0.0 4.3 1.5-- 11.8---
1981-05-30 6.6 8.7 4.9- 97.3 9.5 7.0 3.4 0.0 0.0- 840.4 0.0 0.0 0.0- 0.0 0.3 0.5-- 17.0---
1981-05-31 9.6 12.4 7.2- 77.5 9.3 4.1 2.4 0.0 0.0- 843.4 0.0 0.0 0.0- 0.0 3.3-------
1981-06-01 13.0 17.2 9.6- 78.6 11.6 4.5 5.4 0.0 0.0- 845.1 0.0 0.0 0.0- 0.0 12.7-------
1981-06-02 14.9 19.0 11.9- 67.4 11.4 3.5 3.9 0.0 0.0- 843.7 0.4 0.4 0.0- 0.0 9.6 0.4----- 0.2
1981-06-03 15.5 18.5 14.4- 69.1 12.3 4.4 3.4 3.7 0.6- 840.9 3.2 3.2 0.0- 0.0 9.9 1.1----- 1.7
1981-06-04 11.5 16.0 9.5- 91.4 12.4 6.6 9.9 6.7 6.5- 835.2 0.3 0.0 0.3- 0.0 2.8 0.2-- 12.6---
1981-06-05 6.2 9.6 4.4- 97.9 9.3 6.9 1.8 0.0 0.0- 840.5 0.0 0.0 0.0- 0.0 0.0 3.4-- 18.3---
1981-06-06 8.9 11.9 5.7- 80.9 9.3 5.1 2.5 0.0 0.0- 841.4 1.6 0.0 1.6- 0.0 5.7 1.1------
1981-06-07 9.6 11.2 8.1- 89.4 10.7 6.0 4.3 0.0 0.0- 840.2 0.3 0.3 0.0- 0.0 4.7 3.7-- 3.6---
1981-06-08 10.2 14.2 8.0- 89.4 11.1 5.5 5.6 0.0 0.0- 839.2 0.1 0.0 0.1- 0.0 4.8 0.4-- 9.2---
1981-06-09 11.2 13.1 9.4- 99.4 13.2 7.8 7.1 2.8 0.0- 837.2 1.0 0.2 0.8- 0.0 1.3 1.1-- 20.0---
1981-06-10 8.6 13.0 7.5- 93.6 10.5 6.4 7.5 8.3 0.0- 841.2 0.0 0.0 0.0- 0.0 1.0--- 10.8---
1981-06-11 9.2 14.1 5.5- 76.3 8.8 4.8 3.9 0.0 0.0- 844.8 0.0 0.0 0.0- 0.0 12.7---- 2.0--
1981-06-12 9.7 14.2 7.5- 84.1 10.0 6.6 10.6 9.8 6.8- 841.8 1.2 0.8 0.4- 0.0 5.7 2.1-- 11.7---
1981-06-13 0.2 7.9 -4.2- 86.8 5.4 5.9 12.8 16.2 10.8- 843.4 0.0 0.0 0.0- 0.0 11.0--- 7.6---
189.3 ms

 

Źródłem pochodzenia danych jest Instytut Meteorologii i Gospodarki Wodnej – Państwowy Instytut Badawczy. Dane Instytutu Meteorologii i Gospodarki Wodnej – Państwowego Instytutu Badawczego zostały przetworzone.

Dane źródłowe można odnaleźć na stronie https://dane.imgw.pl